sensor_id;sensor_type;location;lat;lon;timestamp;P1;durP1;ratioP1;P2;durP2;ratioP2
3193;SDS011;1608;50.860;13.466;2022-11-21T00:00:31;14.40;;;8.37;;
3193;SDS011;1608;50.860;13.466;2022-11-21T00:02:58;18.60;;;7.70;;
3193;SDS011;1608;50.860;13.466;2022-11-21T00:05:26;13.10;;;8.40;;
3193;SDS011;1608;50.860;13.466;2022-11-21T00:07:54;11.60;;;6.20;;
3193;SDS011;1608;50.860;13.466;2022-11-21T00:10:21;14.20;;;5.63;;
3193;SDS011;1608;50.860;13.466;2022-11-21T00:12:51;10.17;;;5.90;;
3193;SDS011;1608;50.860;13.466;2022-11-21T00:15:19;6.23;;;5.10;;
3193;SDS011;1608;50.860;13.466;2022-11-21T00:17:47;8.87;;;4.00;;
3193;SDS011;1608;50.860;13.466;2022-11-21T00:20:14;10.03;;;5.63;;
3193;SDS011;1608;50.860;13.466;2022-11-21T00:22:42;7.10;;;4.63;;
3193;SDS011;1608;50.860;13.466;2022-11-21T00:25:09;6.90;;;4.53;;
3193;SDS011;1608;50.860;13.466;2022-11-21T00:27:36;8.23;;;5.30;;
3193;SDS011;1608;50.860;13.466;2022-11-21T00:30:03;7.20;;;4.30;;
3193;SDS011;1608;50.860;13.466;2022-11-21T00:32:31;8.37;;;4.47;;
3193;SDS011;1608;50.860;13.466;2022-11-21T00:34:59;6.33;;;4.80;;
3193;SDS011;1608;50.860;13.466;2022-11-21T00:37:26;6.87;;;4.50;;
3193;SDS011;1608;50.860;13.466;2022-11-21T00:39:53;5.37;;;4.20;;
3193;SDS011;1608;50.860;13.466;2022-11-21T00:42:20;5.93;;;3.20;;
3193;SDS011;1608;50.860;13.466;2022-11-21T00:44:46;6.57;;;4.37;;
3193;SDS011;1608;50.860;13.466;2022-11-21T00:47:13;7.27;;;5.10;;
3193;SDS011;1608;50.860;13.466;2022-11-21T00:49:40;6.80;;;4.40;;
3193;SDS011;1608;50.860;13.466;2022-11-21T00:52:08;5.33;;;3.70;;
3193;SDS011;1608;50.860;13.466;2022-11-21T00:54:35;9.13;;;3.83;;
3193;SDS011;1608;50.860;13.466;2022-11-21T00:57:02;4.63;;;3.47;;
3193;SDS011;1608;50.860;13.466;2022-11-21T00:59:29;4.57;;;3.23;;
3193;SDS011;1608;50.860;13.466;2022-11-21T01:01:55;10.10;;;4.37;;
3193;SDS011;1608;50.860;13.466;2022-11-21T01:04:22;4.83;;;3.37;;
3193;SDS011;1608;50.860;13.466;2022-11-21T01:06:49;4.53;;;3.63;;
3193;SDS011;1608;50.860;13.466;2022-11-21T01:09:17;3.73;;;2.87;;
3193;SDS011;1608;50.860;13.466;2022-11-21T01:11:44;5.30;;;2.77;;
3193;SDS011;1608;50.860;13.466;2022-11-21T01:14:11;5.83;;;4.00;;
3193;SDS011;1608;50.860;13.466;2022-11-21T01:16:37;7.87;;;4.23;;
3193;SDS011;1608;50.860;13.466;2022-11-21T01:19:04;6.33;;;4.30;;
3193;SDS011;1608;50.860;13.466;2022-11-21T01:21:31;7.70;;;3.20;;
3193;SDS011;1608;50.860;13.466;2022-11-21T01:23:58;3.50;;;2.40;;
3193;SDS011;1608;50.860;13.466;2022-11-21T01:26:29;6.07;;;3.50;;
3193;SDS011;1608;50.860;13.466;2022-11-21T01:28:57;5.10;;;3.47;;
3193;SDS011;1608;50.860;13.466;2022-11-21T01:31:24;4.80;;;3.30;;
3193;SDS011;1608;50.860;13.466;2022-11-21T01:33:52;6.10;;;3.90;;
3193;SDS011;1608;50.860;13.466;2022-11-21T01:36:20;6.00;;;3.10;;
3193;SDS011;1608;50.860;13.466;2022-11-21T01:38:49;6.10;;;4.13;;
3193;SDS011;1608;50.860;13.466;2022-11-21T01:41:18;4.93;;;3.53;;
3193;SDS011;1608;50.860;13.466;2022-11-21T01:43:47;5.83;;;3.60;;
3193;SDS011;1608;50.860;13.466;2022-11-21T01:46:15;5.63;;;2.73;;
3193;SDS011;1608;50.860;13.466;2022-11-21T01:48:44;5.57;;;3.80;;
3193;SDS011;1608;50.860;13.466;2022-11-21T01:51:16;5.70;;;3.83;;
3193;SDS011;1608;50.860;13.466;2022-11-21T01:53:48;5.50;;;4.03;;
3193;SDS011;1608;50.860;13.466;2022-11-21T01:56:18;6.93;;;4.43;;
3193;SDS011;1608;50.860;13.466;2022-11-21T01:58:48;10.20;;;4.60;;
3193;SDS011;1608;50.860;13.466;2022-11-21T02:01:16;6.97;;;4.17;;
3193;SDS011;1608;50.860;13.466;2022-11-21T02:03:43;6.13;;;3.73;;
3193;SDS011;1608;50.860;13.466;2022-11-21T02:06:13;6.17;;;3.60;;
3193;SDS011;1608;50.860;13.466;2022-11-21T02:08:39;7.97;;;3.90;;
3193;SDS011;1608;50.860;13.466;2022-11-21T02:11:11;6.50;;;3.93;;
3193;SDS011;1608;50.860;13.466;2022-11-21T02:13:45;5.10;;;3.10;;
3193;SDS011;1608;50.860;13.466;2022-11-21T02:16:13;5.80;;;3.87;;
3193;SDS011;1608;50.860;13.466;2022-11-21T02:18:40;5.37;;;4.33;;
3193;SDS011;1608;50.860;13.466;2022-11-21T02:21:10;14.20;;;5.77;;
3193;SDS011;1608;50.860;13.466;2022-11-21T02:23:43;4.63;;;4.23;;
3193;SDS011;1608;50.860;13.466;2022-11-21T02:26:16;7.20;;;3.33;;
3193;SDS011;1608;50.860;13.466;2022-11-21T02:28:43;6.13;;;3.93;;
3193;SDS011;1608;50.860;13.466;2022-11-21T02:31:10;6.87;;;3.93;;
3193;SDS011;1608;50.860;13.466;2022-11-21T02:33:37;5.90;;;2.97;;
3193;SDS011;1608;50.860;13.466;2022-11-21T02:36:26;7.73;;;2.77;;
3193;SDS011;1608;50.860;13.466;2022-11-21T02:39:00;3.97;;;2.10;;
3193;SDS011;1608;50.860;13.466;2022-11-21T02:41:29;5.60;;;2.27;;
3193;SDS011;1608;50.860;13.466;2022-11-21T02:43:58;6.50;;;3.37;;
3193;SDS011;1608;50.860;13.466;2022-11-21T02:46:29;2.90;;;2.47;;
3193;SDS011;1608;50.860;13.466;2022-11-21T02:48:58;3.97;;;2.87;;
3193;SDS011;1608;50.860;13.466;2022-11-21T02:51:28;3.30;;;2.30;;
3193;SDS011;1608;50.860;13.466;2022-11-21T02:53:55;2.90;;;2.17;;
3193;SDS011;1608;50.860;13.466;2022-11-21T02:56:21;4.93;;;2.97;;
3193;SDS011;1608;50.860;13.466;2022-11-21T02:58:50;3.43;;;2.70;;
3193;SDS011;1608;50.860;13.466;2022-11-21T03:01:16;4.03;;;3.03;;
3193;SDS011;1608;50.860;13.466;2022-11-21T03:03:43;4.83;;;2.60;;
3193;SDS011;1608;50.860;13.466;2022-11-21T03:06:10;2.47;;;2.27;;
3193;SDS011;1608;50.860;13.466;2022-11-21T03:08:37;3.37;;;2.30;;
3193;SDS011;1608;50.860;13.466;2022-11-21T03:11:03;4.70;;;3.10;;
3193;SDS011;1608;50.860;13.466;2022-11-21T03:13:30;4.30;;;2.10;;
3193;SDS011;1608;50.860;13.466;2022-11-21T03:15:59;3.23;;;2.10;;
3193;SDS011;1608;50.860;13.466;2022-11-21T03:18:26;2.40;;;2.00;;
3193;SDS011;1608;50.860;13.466;2022-11-21T03:20:52;3.33;;;2.13;;
3193;SDS011;1608;50.860;13.466;2022-11-21T03:23:19;3.00;;;2.07;;
3193;SDS011;1608;50.860;13.466;2022-11-21T03:25:46;3.87;;;2.40;;
3193;SDS011;1608;50.860;13.466;2022-11-21T03:28:13;2.40;;;2.07;;
3193;SDS011;1608;50.860;13.466;2022-11-21T03:30:40;4.77;;;2.80;;
3193;SDS011;1608;50.860;13.466;2022-11-21T03:33:08;3.40;;;2.70;;
3193;SDS011;1608;50.860;13.466;2022-11-21T03:35:34;3.83;;;3.07;;
3193;SDS011;1608;50.860;13.466;2022-11-21T03:38:01;2.73;;;1.60;;
3193;SDS011;1608;50.860;13.466;2022-11-21T03:40:28;4.70;;;2.63;;
3193;SDS011;1608;50.860;13.466;2022-11-21T03:42:55;3.40;;;2.40;;
3193;SDS011;1608;50.860;13.466;2022-11-21T03:45:22;2.73;;;1.83;;
3193;SDS011;1608;50.860;13.466;2022-11-21T03:47:48;2.93;;;2.10;;
3193;SDS011;1608;50.860;13.466;2022-11-21T03:50:16;3.53;;;3.23;;
3193;SDS011;1608;50.860;13.466;2022-11-21T03:52:45;4.10;;;1.70;;
3193;SDS011;1608;50.860;13.466;2022-11-21T03:55:11;3.30;;;1.90;;
3193;SDS011;1608;50.860;13.466;2022-11-21T03:57:39;3.27;;;1.43;;
3193;SDS011;1608;50.860;13.466;2022-11-21T04:00:06;2.90;;;1.80;;
3193;SDS011;1608;50.860;13.466;2022-11-21T04:02:34;3.30;;;1.90;;
3193;SDS011;1608;50.860;13.466;2022-11-21T04:05:00;1.70;;;1.40;;
3193;SDS011;1608;50.860;13.466;2022-11-21T04:07:29;2.23;;;1.87;;
3193;SDS011;1608;50.860;13.466;2022-11-21T04:09:55;3.10;;;1.90;;
3193;SDS011;1608;50.860;13.466;2022-11-21T04:12:22;2.40;;;2.03;;
3193;SDS011;1608;50.860;13.466;2022-11-21T04:14:49;1.93;;;1.53;;
3193;SDS011;1608;50.860;13.466;2022-11-21T04:17:16;2.80;;;1.33;;
3193;SDS011;1608;50.860;13.466;2022-11-21T04:19:42;2.90;;;1.57;;
3193;SDS011;1608;50.860;13.466;2022-11-21T04:22:09;4.13;;;1.57;;
3193;SDS011;1608;50.860;13.466;2022-11-21T04:24:37;2.50;;;1.63;;
3193;SDS011;1608;50.860;13.466;2022-11-21T04:27:04;3.43;;;1.70;;
3193;SDS011;1608;50.860;13.466;2022-11-21T04:29:31;2.00;;;1.67;;
3193;SDS011;1608;50.860;13.466;2022-11-21T04:31:58;3.00;;;1.50;;
3193;SDS011;1608;50.860;13.466;2022-11-21T04:34:24;1.67;;;1.37;;
3193;SDS011;1608;50.860;13.466;2022-11-21T04:36:51;1.77;;;1.40;;
3193;SDS011;1608;50.860;13.466;2022-11-21T04:39:18;3.60;;;1.97;;
3193;SDS011;1608;50.860;13.466;2022-11-21T04:41:46;1.73;;;1.17;;
3193;SDS011;1608;50.860;13.466;2022-11-21T04:44:13;2.87;;;1.07;;
3193;SDS011;1608;50.860;13.466;2022-11-21T04:46:40;1.47;;;1.23;;
3193;SDS011;1608;50.860;13.466;2022-11-21T04:49:06;1.60;;;1.30;;
3193;SDS011;1608;50.860;13.466;2022-11-21T04:51:33;1.40;;;1.03;;
3193;SDS011;1608;50.860;13.466;2022-11-21T04:54:00;1.40;;;1.27;;
3193;SDS011;1608;50.860;13.466;2022-11-21T04:56:27;1.57;;;1.43;;
3193;SDS011;1608;50.860;13.466;2022-11-21T04:58:55;1.63;;;1.10;;
3193;SDS011;1608;50.860;13.466;2022-11-21T05:01:21;3.30;;;1.53;;
3193;SDS011;1608;50.860;13.466;2022-11-21T05:03:48;2.50;;;1.07;;
3193;SDS011;1608;50.860;13.466;2022-11-21T05:06:17;1.60;;;1.13;;
3193;SDS011;1608;50.860;13.466;2022-11-21T05:08:44;1.70;;;1.10;;
3193;SDS011;1608;50.860;13.466;2022-11-21T05:11:10;7.80;;;1.20;;
3193;SDS011;1608;50.860;13.466;2022-11-21T05:13:56;2.83;;;2.40;;
3193;SDS011;1608;50.860;13.466;2022-11-21T05:16:23;1.50;;;1.13;;
3193;SDS011;1608;50.860;13.466;2022-11-21T05:18:50;1.60;;;1.30;;
3193;SDS011;1608;50.860;13.466;2022-11-21T05:21:16;1.50;;;1.27;;
3193;SDS011;1608;50.860;13.466;2022-11-21T05:23:43;1.53;;;1.40;;
3193;SDS011;1608;50.860;13.466;2022-11-21T05:26:10;1.77;;;1.03;;
3193;SDS011;1608;50.860;13.466;2022-11-21T05:28:37;1.70;;;1.10;;
3193;SDS011;1608;50.860;13.466;2022-11-21T05:31:05;2.83;;;1.60;;
3193;SDS011;1608;50.860;13.466;2022-11-21T05:33:32;2.43;;;1.33;;
3193;SDS011;1608;50.860;13.466;2022-11-21T05:35:59;2.33;;;1.50;;
3193;SDS011;1608;50.860;13.466;2022-11-21T05:38:25;1.80;;;1.17;;
3193;SDS011;1608;50.860;13.466;2022-11-21T05:40:52;1.70;;;1.20;;
3193;SDS011;1608;50.860;13.466;2022-11-21T05:43:19;1.97;;;1.30;;
3193;SDS011;1608;50.860;13.466;2022-11-21T05:46:05;1.60;;;1.50;;
3193;SDS011;1608;50.860;13.466;2022-11-21T05:48:31;1.57;;;1.40;;
3193;SDS011;1608;50.860;13.466;2022-11-21T05:51:00;1.00;;;0.90;;
3193;SDS011;1608;50.860;13.466;2022-11-21T05:53:27;1.80;;;1.50;;
3193;SDS011;1608;50.860;13.466;2022-11-21T05:55:54;1.73;;;1.40;;
3193;SDS011;1608;50.860;13.466;2022-11-21T05:58:21;4.40;;;1.60;;
3193;SDS011;1608;50.860;13.466;2022-11-21T06:00:48;1.83;;;1.30;;
3193;SDS011;1608;50.860;13.466;2022-11-21T06:03:16;4.10;;;2.10;;
3193;SDS011;1608;50.860;13.466;2022-11-21T06:05:50;2.53;;;1.80;;
3193;SDS011;1608;50.860;13.466;2022-11-21T06:08:17;3.37;;;2.13;;
3193;SDS011;1608;50.860;13.466;2022-11-21T06:10:44;3.10;;;2.10;;
3193;SDS011;1608;50.860;13.466;2022-11-21T06:13:11;4.17;;;3.13;;
3193;SDS011;1608;50.860;13.466;2022-11-21T06:15:51;3.43;;;3.13;;
3193;SDS011;1608;50.860;13.466;2022-11-21T06:18:22;4.50;;;3.00;;
3193;SDS011;1608;50.860;13.466;2022-11-21T06:20:49;6.70;;;3.43;;
3193;SDS011;1608;50.860;13.466;2022-11-21T06:23:16;3.97;;;3.50;;
3193;SDS011;1608;50.860;13.466;2022-11-21T06:25:43;4.83;;;3.00;;
3193;SDS011;1608;50.860;13.466;2022-11-21T06:28:10;6.07;;;3.47;;
3193;SDS011;1608;50.860;13.466;2022-11-21T06:30:37;9.00;;;3.43;;
3193;SDS011;1608;50.860;13.466;2022-11-21T06:33:04;4.97;;;2.87;;
3193;SDS011;1608;50.860;13.466;2022-11-21T06:35:35;6.30;;;3.07;;
3193;SDS011;1608;50.860;13.466;2022-11-21T06:38:03;2.70;;;2.23;;
3193;SDS011;1608;50.860;13.466;2022-11-21T06:40:29;3.20;;;2.60;;
3193;SDS011;1608;50.860;13.466;2022-11-21T06:42:56;3.80;;;2.47;;
3193;SDS011;1608;50.860;13.466;2022-11-21T06:45:23;2.63;;;1.73;;
3193;SDS011;1608;50.860;13.466;2022-11-21T06:47:50;3.27;;;3.00;;
3193;SDS011;1608;50.860;13.466;2022-11-21T06:50:17;4.03;;;2.23;;
3193;SDS011;1608;50.860;13.466;2022-11-21T06:52:45;2.07;;;1.80;;
3193;SDS011;1608;50.860;13.466;2022-11-21T06:55:12;2.37;;;1.93;;
3193;SDS011;1608;50.860;13.466;2022-11-21T06:57:39;3.03;;;2.70;;
3193;SDS011;1608;50.860;13.466;2022-11-21T07:00:06;2.27;;;1.97;;
3193;SDS011;1608;50.860;13.466;2022-11-21T07:02:34;2.40;;;1.60;;
3193;SDS011;1608;50.860;13.466;2022-11-21T07:05:00;3.50;;;2.30;;
3193;SDS011;1608;50.860;13.466;2022-11-21T07:07:27;2.97;;;2.33;;
3193;SDS011;1608;50.860;13.466;2022-11-21T07:09:55;3.00;;;2.37;;
3193;SDS011;1608;50.860;13.466;2022-11-21T07:12:22;2.57;;;2.23;;
3193;SDS011;1608;50.860;13.466;2022-11-21T07:15:07;4.20;;;2.67;;
3193;SDS011;1608;50.860;13.466;2022-11-21T07:17:35;2.50;;;2.10;;
3193;SDS011;1608;50.860;13.466;2022-11-21T07:20:02;5.40;;;2.47;;
3193;SDS011;1608;50.860;13.466;2022-11-21T07:22:29;5.10;;;2.40;;
3193;SDS011;1608;50.860;13.466;2022-11-21T07:24:57;2.63;;;2.20;;
3193;SDS011;1608;50.860;13.466;2022-11-21T07:27:24;4.87;;;2.50;;
3193;SDS011;1608;50.860;13.466;2022-11-21T07:29:51;2.70;;;2.03;;
3193;SDS011;1608;50.860;13.466;2022-11-21T07:32:17;3.47;;;2.37;;
3193;SDS011;1608;50.860;13.466;2022-11-21T07:34:44;3.03;;;2.73;;
3193;SDS011;1608;50.860;13.466;2022-11-21T07:37:11;3.63;;;2.87;;
3193;SDS011;1608;50.860;13.466;2022-11-21T07:39:38;3.43;;;2.97;;
3193;SDS011;1608;50.860;13.466;2022-11-21T07:42:06;4.77;;;3.10;;
3193;SDS011;1608;50.860;13.466;2022-11-21T07:44:33;3.47;;;3.17;;
3193;SDS011;1608;50.860;13.466;2022-11-21T07:46:59;3.37;;;3.07;;
3193;SDS011;1608;50.860;13.466;2022-11-21T07:49:26;3.50;;;3.10;;
3193;SDS011;1608;50.860;13.466;2022-11-21T07:51:53;5.87;;;4.07;;
3193;SDS011;1608;50.860;13.466;2022-11-21T07:54:20;4.00;;;3.40;;
3193;SDS011;1608;50.860;13.466;2022-11-21T07:56:47;4.60;;;3.97;;
3193;SDS011;1608;50.860;13.466;2022-11-21T07:59:15;3.60;;;3.30;;
3193;SDS011;1608;50.860;13.466;2022-11-21T08:01:43;4.20;;;3.67;;
3193;SDS011;1608;50.860;13.466;2022-11-21T08:04:10;4.00;;;3.40;;
3193;SDS011;1608;50.860;13.466;2022-11-21T08:06:37;6.43;;;3.43;;
3193;SDS011;1608;50.860;13.466;2022-11-21T08:09:04;4.13;;;3.70;;
3193;SDS011;1608;50.860;13.466;2022-11-21T08:11:30;4.40;;;3.50;;
3193;SDS011;1608;50.860;13.466;2022-11-21T08:13:57;7.43;;;3.93;;
3193;SDS011;1608;50.860;13.466;2022-11-21T08:16:25;7.00;;;4.63;;
3193;SDS011;1608;50.860;13.466;2022-11-21T08:18:56;4.90;;;4.00;;
3193;SDS011;1608;50.860;13.466;2022-11-21T08:21:23;5.83;;;4.23;;
3193;SDS011;1608;50.860;13.466;2022-11-21T08:23:50;4.50;;;3.50;;
3193;SDS011;1608;50.860;13.466;2022-11-21T08:26:17;4.30;;;3.70;;
3193;SDS011;1608;50.860;13.466;2022-11-21T08:28:44;5.77;;;3.60;;
3193;SDS011;1608;50.860;13.466;2022-11-21T08:31:11;5.93;;;4.30;;
3193;SDS011;1608;50.860;13.466;2022-11-21T08:33:39;6.97;;;5.17;;
3193;SDS011;1608;50.860;13.466;2022-11-21T08:36:06;8.07;;;5.37;;
3193;SDS011;1608;50.860;13.466;2022-11-21T08:38:33;7.70;;;5.77;;
3193;SDS011;1608;50.860;13.466;2022-11-21T08:41:00;7.10;;;5.63;;
3193;SDS011;1608;50.860;13.466;2022-11-21T08:43:44;9.53;;;7.43;;
3193;SDS011;1608;50.860;13.466;2022-11-21T08:46:11;12.87;;;7.37;;
3193;SDS011;1608;50.860;13.466;2022-11-21T08:48:37;9.77;;;6.30;;
3193;SDS011;1608;50.860;13.466;2022-11-21T08:51:05;10.70;;;6.77;;
3193;SDS011;1608;50.860;13.466;2022-11-21T08:53:32;15.20;;;8.90;;
3193;SDS011;1608;50.860;13.466;2022-11-21T08:55:59;12.60;;;7.50;;
3193;SDS011;1608;50.860;13.466;2022-11-21T08:58:26;15.57;;;9.50;;
3193;SDS011;1608;50.860;13.466;2022-11-21T09:00:53;19.07;;;10.50;;
3193;SDS011;1608;50.860;13.466;2022-11-21T09:03:20;19.80;;;10.73;;
3193;SDS011;1608;50.860;13.466;2022-11-21T09:05:48;19.60;;;10.07;;
3193;SDS011;1608;50.860;13.466;2022-11-21T09:08:15;21.20;;;11.77;;
3193;SDS011;1608;50.860;13.466;2022-11-21T09:10:42;26.60;;;13.40;;
3193;SDS011;1608;50.860;13.466;2022-11-21T09:13:08;24.20;;;12.80;;
3193;SDS011;1608;50.860;13.466;2022-11-21T09:15:36;23.93;;;12.70;;
3193;SDS011;1608;50.860;13.466;2022-11-21T09:18:20;22.67;;;14.33;;
3193;SDS011;1608;50.860;13.466;2022-11-21T09:20:48;30.03;;;13.43;;
3193;SDS011;1608;50.860;13.466;2022-11-21T09:23:15;34.60;;;16.13;;
3193;SDS011;1608;50.860;13.466;2022-11-21T09:25:43;32.40;;;15.00;;
3193;SDS011;1608;50.860;13.466;2022-11-21T09:28:10;27.00;;;15.20;;
3193;SDS011;1608;50.860;13.466;2022-11-21T09:30:38;25.67;;;15.70;;
3193;SDS011;1608;50.860;13.466;2022-11-21T09:33:06;30.17;;;14.03;;
3193;SDS011;1608;50.860;13.466;2022-11-21T09:35:35;20.93;;;11.70;;
3193;SDS011;1608;50.860;13.466;2022-11-21T09:38:04;24.60;;;13.03;;
3193;SDS011;1608;50.860;13.466;2022-11-21T09:40:32;24.80;;;13.90;;
3193;SDS011;1608;50.860;13.466;2022-11-21T09:43:09;21.37;;;11.33;;
3193;SDS011;1608;50.860;13.466;2022-11-21T09:46:01;22.20;;;13.70;;
3193;SDS011;1608;50.860;13.466;2022-11-21T09:48:33;19.73;;;10.20;;
3193;SDS011;1608;50.860;13.466;2022-11-21T09:51:08;22.30;;;13.10;;
3193;SDS011;1608;50.860;13.466;2022-11-21T09:53:43;20.60;;;10.17;;
3193;SDS011;1608;50.860;13.466;2022-11-21T09:56:18;11.40;;;4.73;;
3193;SDS011;1608;50.860;13.466;2022-11-21T09:58:50;29.30;;;12.33;;
3193;SDS011;1608;50.860;13.466;2022-11-21T10:01:28;26.03;;;12.90;;
3193;SDS011;1608;50.860;13.466;2022-11-21T10:03:56;25.10;;;14.43;;
3193;SDS011;1608;50.860;13.466;2022-11-21T10:06:27;26.30;;;13.90;;
3193;SDS011;1608;50.860;13.466;2022-11-21T10:08:59;26.80;;;15.60;;
3193;SDS011;1608;50.860;13.466;2022-11-21T10:11:35;26.20;;;12.63;;
3193;SDS011;1608;50.860;13.466;2022-11-21T10:14:25;25.83;;;14.53;;
3193;SDS011;1608;50.860;13.466;2022-11-21T10:17:08;23.83;;;14.37;;
3193;SDS011;1608;50.860;13.466;2022-11-21T10:19:46;37.17;;;16.30;;
3193;SDS011;1608;50.860;13.466;2022-11-21T10:22:28;31.00;;;15.10;;
3193;SDS011;1608;50.860;13.466;2022-11-21T10:25:13;33.00;;;14.97;;
3193;SDS011;1608;50.860;13.466;2022-11-21T10:27:45;29.17;;;15.80;;
3193;SDS011;1608;50.860;13.466;2022-11-21T10:30:16;32.17;;;16.63;;
3193;SDS011;1608;50.860;13.466;2022-11-21T10:32:45;32.03;;;16.50;;
3193;SDS011;1608;50.860;13.466;2022-11-21T10:35:15;32.07;;;16.90;;
3193;SDS011;1608;50.860;13.466;2022-11-21T10:37:47;29.57;;;14.77;;
3193;SDS011;1608;50.860;13.466;2022-11-21T10:40:25;36.27;;;16.80;;
3193;SDS011;1608;50.860;13.466;2022-11-21T10:42:59;21.60;;;11.97;;
3193;SDS011;1608;50.860;13.466;2022-11-21T10:45:50;15.80;;;10.70;;
3193;SDS011;1608;50.860;13.466;2022-11-21T10:48:16;23.37;;;11.73;;
3193;SDS011;1608;50.860;13.466;2022-11-21T10:50:46;35.73;;;14.73;;
3193;SDS011;1608;50.860;13.466;2022-11-21T10:53:25;25.90;;;11.13;;
3193;SDS011;1608;50.860;13.466;2022-11-21T10:56:11;34.47;;;15.13;;
3193;SDS011;1608;50.860;13.466;2022-11-21T10:58:41;33.57;;;14.37;;
3193;SDS011;1608;50.860;13.466;2022-11-21T11:01:23;39.27;;;14.97;;
3193;SDS011;1608;50.860;13.466;2022-11-21T11:04:05;34.30;;;17.67;;
3193;SDS011;1608;50.860;13.466;2022-11-21T11:06:35;35.23;;;16.10;;
3193;SDS011;1608;50.860;13.466;2022-11-21T11:09:03;30.60;;;15.80;;
3193;SDS011;1608;50.860;13.466;2022-11-21T11:11:32;35.13;;;15.70;;
3193;SDS011;1608;50.860;13.466;2022-11-21T11:14:00;33.80;;;15.30;;
3193;SDS011;1608;50.860;13.466;2022-11-21T11:16:29;38.70;;;18.67;;
3193;SDS011;1608;50.860;13.466;2022-11-21T11:18:58;40.17;;;19.03;;
3193;SDS011;1608;50.860;13.466;2022-11-21T11:21:27;40.57;;;18.13;;
3193;SDS011;1608;50.860;13.466;2022-11-21T11:24:05;39.53;;;17.23;;
3193;SDS011;1608;50.860;13.466;2022-11-21T11:26:50;33.30;;;15.40;;
3193;SDS011;1608;50.860;13.466;2022-11-21T11:29:22;43.30;;;16.30;;
3193;SDS011;1608;50.860;13.466;2022-11-21T11:31:51;35.77;;;17.63;;
3193;SDS011;1608;50.860;13.466;2022-11-21T11:34:21;41.40;;;15.70;;
3193;SDS011;1608;50.860;13.466;2022-11-21T11:36:59;29.37;;;15.20;;
3193;SDS011;1608;50.860;13.466;2022-11-21T11:39:40;28.13;;;14.93;;
3193;SDS011;1608;50.860;13.466;2022-11-21T11:42:28;23.67;;;13.27;;
3193;SDS011;1608;50.860;13.466;2022-11-21T11:48:51;21.97;;;12.47;;
3193;SDS011;1608;50.860;13.466;2022-11-21T11:51:24;32.03;;;16.27;;
3193;SDS011;1608;50.860;13.466;2022-11-21T11:53:54;27.20;;;14.40;;
3193;SDS011;1608;50.860;13.466;2022-11-21T11:56:26;34.20;;;14.57;;
3193;SDS011;1608;50.860;13.466;2022-11-21T11:58:57;30.33;;;14.60;;
3193;SDS011;1608;50.860;13.466;2022-11-21T12:01:29;28.77;;;15.30;;
3193;SDS011;1608;50.860;13.466;2022-11-21T12:04:01;27.10;;;14.40;;
3193;SDS011;1608;50.860;13.466;2022-11-21T12:06:32;27.87;;;14.80;;
3193;SDS011;1608;50.860;13.466;2022-11-21T12:09:04;25.90;;;13.10;;
3193;SDS011;1608;50.860;13.466;2022-11-21T12:11:40;31.40;;;14.63;;
3193;SDS011;1608;50.860;13.466;2022-11-21T12:17:47;25.77;;;13.13;;
3193;SDS011;1608;50.860;13.466;2022-11-21T12:20:20;20.10;;;13.00;;
3193;SDS011;1608;50.860;13.466;2022-11-21T12:22:50;33.67;;;15.90;;
3193;SDS011;1608;50.860;13.466;2022-11-21T12:25:20;23.93;;;14.60;;
3193;SDS011;1608;50.860;13.466;2022-11-21T12:27:51;29.43;;;13.70;;
3193;SDS011;1608;50.860;13.466;2022-11-21T12:33:18;39.13;;;15.93;;
3193;SDS011;1608;50.860;13.466;2022-11-21T12:36:03;21.30;;;12.37;;
3193;SDS011;1608;50.860;13.466;2022-11-21T12:38:43;23.37;;;12.27;;
3193;SDS011;1608;50.860;13.466;2022-11-21T12:41:20;31.57;;;14.27;;
3193;SDS011;1608;50.860;13.466;2022-11-21T12:44:12;29.67;;;14.20;;
3193;SDS011;1608;50.860;13.466;2022-11-21T12:47:09;28.73;;;13.40;;
3193;SDS011;1608;50.860;13.466;2022-11-21T12:49:48;26.60;;;14.13;;
3193;SDS011;1608;50.860;13.466;2022-11-21T12:52:38;30.17;;;14.77;;
3193;SDS011;1608;50.860;13.466;2022-11-21T12:55:31;21.03;;;11.80;;
3193;SDS011;1608;50.860;13.466;2022-11-21T12:58:07;23.60;;;11.50;;
3193;SDS011;1608;50.860;13.466;2022-11-21T13:00:44;22.50;;;12.90;;
3193;SDS011;1608;50.860;13.466;2022-11-21T13:03:35;21.20;;;13.30;;
3193;SDS011;1608;50.860;13.466;2022-11-21T13:06:11;27.77;;;14.40;;
3193;SDS011;1608;50.860;13.466;2022-11-21T13:08:41;20.90;;;11.60;;
3193;SDS011;1608;50.860;13.466;2022-11-21T13:11:15;23.97;;;12.60;;
3193;SDS011;1608;50.860;13.466;2022-11-21T13:14:09;21.80;;;11.53;;
3193;SDS011;1608;50.860;13.466;2022-11-21T13:16:41;27.50;;;12.70;;
3193;SDS011;1608;50.860;13.466;2022-11-21T13:19:17;26.20;;;12.73;;
3193;SDS011;1608;50.860;13.466;2022-11-21T13:21:48;21.93;;;11.87;;
3193;SDS011;1608;50.860;13.466;2022-11-21T13:27:30;26.17;;;11.93;;
3193;SDS011;1608;50.860;13.466;2022-11-21T13:30:19;20.80;;;13.80;;
3193;SDS011;1608;50.860;13.466;2022-11-21T13:32:48;37.93;;;15.80;;
3193;SDS011;1608;50.860;13.466;2022-11-21T13:38:30;31.20;;;12.93;;
3193;SDS011;1608;50.860;13.466;2022-11-21T13:40:58;33.50;;;14.77;;
3193;SDS011;1608;50.860;13.466;2022-11-21T13:43:44;29.43;;;16.80;;
3193;SDS011;1608;50.860;13.466;2022-11-21T13:46:15;44.57;;;20.13;;
3193;SDS011;1608;50.860;13.466;2022-11-21T13:49:20;37.10;;;20.20;;
3193;SDS011;1608;50.860;13.466;2022-11-21T13:51:51;34.87;;;16.60;;
3193;SDS011;1608;50.860;13.466;2022-11-21T13:54:24;33.60;;;15.97;;
3193;SDS011;1608;50.860;13.466;2022-11-21T13:57:23;30.10;;;18.93;;
3193;SDS011;1608;50.860;13.466;2022-11-21T14:00:02;33.50;;;20.33;;
3193;SDS011;1608;50.860;13.466;2022-11-21T14:02:59;38.33;;;19.90;;
3193;SDS011;1608;50.860;13.466;2022-11-21T14:06:02;41.73;;;18.30;;
3193;SDS011;1608;50.860;13.466;2022-11-21T14:09:03;34.03;;;18.33;;
3193;SDS011;1608;50.860;13.466;2022-11-21T14:11:43;33.73;;;17.13;;
3193;SDS011;1608;50.860;13.466;2022-11-21T14:14:21;32.13;;;17.20;;
3193;SDS011;1608;50.860;13.466;2022-11-21T14:16:55;41.33;;;20.30;;
3193;SDS011;1608;50.860;13.466;2022-11-21T14:19:42;38.10;;;19.17;;
3193;SDS011;1608;50.860;13.466;2022-11-21T14:22:13;45.03;;;25.93;;
3193;SDS011;1608;50.860;13.466;2022-11-21T14:24:50;29.37;;;15.40;;
3193;SDS011;1608;50.860;13.466;2022-11-21T14:27:23;28.97;;;16.53;;
3193;SDS011;1608;50.860;13.466;2022-11-21T14:29:53;32.50;;;16.20;;
3193;SDS011;1608;50.860;13.466;2022-11-21T14:32:29;44.37;;;22.83;;
3193;SDS011;1608;50.860;13.466;2022-11-21T14:35:10;26.63;;;17.93;;
3193;SDS011;1608;50.860;13.466;2022-11-21T14:37:44;36.40;;;16.47;;
3193;SDS011;1608;50.860;13.466;2022-11-21T14:40:11;24.30;;;14.93;;
3193;SDS011;1608;50.860;13.466;2022-11-21T14:42:40;29.77;;;15.10;;
3193;SDS011;1608;50.860;13.466;2022-11-21T14:45:12;28.00;;;15.30;;
3193;SDS011;1608;50.860;13.466;2022-11-21T14:47:46;27.17;;;17.43;;
3193;SDS011;1608;50.860;13.466;2022-11-21T14:50:24;30.13;;;19.23;;
3193;SDS011;1608;50.860;13.466;2022-11-21T14:52:52;33.30;;;18.73;;
3193;SDS011;1608;50.860;13.466;2022-11-21T14:55:23;38.00;;;20.37;;
3193;SDS011;1608;50.860;13.466;2022-11-21T14:57:54;39.80;;;20.60;;
3193;SDS011;1608;50.860;13.466;2022-11-21T15:00:22;35.10;;;19.17;;
3193;SDS011;1608;50.860;13.466;2022-11-21T15:02:52;28.43;;;16.80;;
3193;SDS011;1608;50.860;13.466;2022-11-21T15:05:20;27.07;;;15.90;;
3193;SDS011;1608;50.860;13.466;2022-11-21T15:07:48;27.67;;;14.63;;
3193;SDS011;1608;50.860;13.466;2022-11-21T15:10:16;31.13;;;14.37;;
3193;SDS011;1608;50.860;13.466;2022-11-21T15:12:46;24.93;;;12.17;;
3193;SDS011;1608;50.860;13.466;2022-11-21T15:15:25;37.03;;;18.83;;
3193;SDS011;1608;50.860;13.466;2022-11-21T15:17:57;33.63;;;21.93;;
3193;SDS011;1608;50.860;13.466;2022-11-21T15:20:25;29.77;;;17.70;;
3193;SDS011;1608;50.860;13.466;2022-11-21T15:22:53;31.57;;;20.40;;
3193;SDS011;1608;50.860;13.466;2022-11-21T15:25:22;27.90;;;13.37;;
3193;SDS011;1608;50.860;13.466;2022-11-21T15:27:50;17.67;;;11.03;;